Time;durP1;ratioP1;P1;durP2;ratioP2;P2;SDS_P1;SDS_P2;PMS_P1;PMS_P2;Temp;Humidity;BMP_temperature;BMP_pressure;BME280_temperature;BME280_humidity;BME280_pressure;Samples;Min_cycle;Max_cycle;Signal;HPM_P1;HPM_P2
2023/05/06 00:00:08;;;;;;;0.70;0.70;;;;;;;;;;5043526;28;20045;-62
2023/05/06 00:02:34;;;;;;;0.65;0.65;;;;;;;;;;5044342;28;20044;-62
2023/05/06 00:05:02;;;;;;;0.57;0.57;;;;;;;;;;5025941;28;20051;-62
2023/05/06 00:07:28;;;;;;;1.00;0.80;;;;;;;;;;5042905;28;20167;-62
2023/05/06 00:09:54;;;;;;;0.68;0.68;;;;;;;;;;5026287;28;20443;-62
2023/05/06 00:12:20;;;;;;;0.93;0.93;;;;;;;;;;5044570;28;20138;-62
2023/05/06 00:14:46;;;;;;;0.60;0.60;;;;;;;;;;5045174;28;20098;-62
2023/05/06 00:17:12;;;;;;;0.57;0.57;;;;;;;;;;5044779;28;20055;-62
2023/05/06 00:19:38;;;;;;;1.30;0.70;;;;;;;;;;5042622;28;20472;-62
2023/05/06 00:22:04;;;;;;;0.70;0.70;;;;;;;;;;5044199;28;20522;-62
2023/05/06 00:24:30;;;;;;;0.70;0.70;;;;;;;;;;5044363;28;20047;-62
2023/05/06 00:26:57;;;;;;;0.77;0.65;;;;;;;;;;5024824;28;20048;-62
2023/05/06 00:29:23;;;;;;;0.40;0.40;;;;;;;;;;5026262;28;20118;-62
2023/05/06 00:31:49;;;;;;;0.50;0.40;;;;;;;;;;5026986;28;20057;-62
2023/05/06 00:34:15;;;;;;;0.55;0.55;;;;;;;;;;5026697;28;20049;-63
2023/05/06 00:36:41;;;;;;;0.65;0.65;;;;;;;;;;5026279;28;20041;-62
2023/05/06 00:39:08;;;;;;;0.80;0.80;;;;;;;;;;5043832;28;20136;-62
2023/05/06 00:41:34;;;;;;;0.50;0.50;;;;;;;;;;5043987;28;20068;-62
2023/05/06 00:44:00;;;;;;;0.60;0.60;;;;;;;;;;5043912;28;20404;-63
2023/05/06 00:46:26;;;;;;;0.60;0.60;;;;;;;;;;5025691;28;20139;-62
2023/05/06 00:48:53;;;;;;;0.60;0.60;;;;;;;;;;5043287;28;20047;-62
2023/05/06 00:51:19;;;;;;;0.40;0.40;;;;;;;;;;5026424;28;20048;-63
2023/05/06 00:53:45;;;;;;;0.70;0.52;;;;;;;;;;5043465;28;20043;-62
2023/05/06 00:56:11;;;;;;;0.70;0.70;;;;;;;;;;5043932;28;20807;-63
2023/05/06 00:58:38;;;;;;;0.80;0.80;;;;;;;;;;5043855;28;20400;-62
2023/05/06 01:01:04;;;;;;;0.70;0.70;;;;;;;;;;5025630;28;20099;-63
2023/05/06 01:03:30;;;;;;;1.10;1.00;;;;;;;;;;5043097;28;20656;-63
2023/05/06 01:06:07;;;;;;;0.80;0.75;;;;;;;;;;5025882;28;20053;-62
2023/05/06 01:08:47;;;;;;;0.98;0.90;;;;;;;;;;5026123;28;20056;-63
2023/05/06 01:11:14;;;;;;;0.80;0.80;;;;;;;;;;5041991;28;20384;-63
2023/05/06 01:13:44;;;;;;;0.90;0.70;;;;;;;;;;5025783;28;20045;-62
2023/05/06 01:16:11;;;;;;;1.77;0.60;;;;;;;;;;5025101;28;20187;-63
2023/05/06 01:18:38;;;;;;;0.95;0.60;;;;;;;;;;5025625;28;20052;-62
2023/05/06 01:21:04;;;;;;;0.52;0.52;;;;;;;;;;5025423;28;20052;-62
2023/05/06 01:23:50;;;;;;;0.68;0.57;;;;;;;;;;5025013;28;20128;-62
2023/05/06 01:26:16;;;;;;;0.70;0.70;;;;;;;;;;5042939;28;20499;-63
2023/05/06 01:28:42;;;;;;;0.95;0.95;;;;;;;;;;5025999;28;20442;-62
2023/05/06 01:31:11;;;;;;;0.63;0.60;;;;;;;;;;5042724;28;20049;-63
2023/05/06 01:33:40;;;;;;;1.00;0.90;;;;;;;;;;5043233;28;20492;-63
2023/05/06 01:36:12;;;;;;;1.33;0.90;;;;;;;;;;5043390;28;20055;-63
2023/05/06 01:38:54;;;;;;;0.73;0.73;;;;;;;;;;5042623;28;20589;-63
2023/05/06 01:41:20;;;;;;;0.70;0.70;;;;;;;;;;5024733;28;20052;-62
2023/05/06 01:43:47;;;;;;;0.70;0.70;;;;;;;;;;5025291;28;20033;-62
2023/05/06 01:46:15;;;;;;;0.75;0.75;;;;;;;;;;5041933;28;20536;-62
2023/05/06 01:48:42;;;;;;;0.70;0.70;;;;;;;;;;5025561;28;20045;-63
2023/05/06 01:51:08;;;;;;;0.80;0.80;;;;;;;;;;5042298;28;20049;-62
2023/05/06 01:53:34;;;;;;;1.27;0.75;;;;;;;;;;5045322;28;20040;-62
2023/05/06 01:56:00;;;;;;;0.75;0.70;;;;;;;;;;5025252;28;20041;-63
2023/05/06 01:58:26;;;;;;;0.73;0.70;;;;;;;;;;5042707;28;20122;-63
2023/05/06 02:00:52;;;;;;;0.68;0.68;;;;;;;;;;5043182;28;20385;-62
2023/05/06 02:03:18;;;;;;;1.20;0.85;;;;;;;;;;5043182;28;20045;-63
2023/05/06 02:05:44;;;;;;;1.00;0.80;;;;;;;;;;5046486;28;20052;-62
2023/05/06 02:08:10;;;;;;;1.10;1.00;;;;;;;;;;5029615;28;20049;-63
2023/05/06 02:10:36;;;;;;;1.02;0.90;;;;;;;;;;5047077;28;20048;-63
2023/05/06 02:13:02;;;;;;;0.98;0.93;;;;;;;;;;5028332;28;20155;-63
2023/05/06 02:15:28;;;;;;;0.80;0.80;;;;;;;;;;5046893;28;20052;-63
2023/05/06 02:17:55;;;;;;;0.93;0.93;;;;;;;;;;5028519;28;20553;-62
2023/05/06 02:20:22;;;;;;;1.00;1.00;;;;;;;;;;5046968;28;20041;-62
2023/05/06 02:22:48;;;;;;;1.30;1.20;;;;;;;;;;5046099;28;20087;-63
2023/05/06 02:25:14;;;;;;;1.05;0.95;;;;;;;;;;5046707;28;20252;-62
2023/05/06 02:27:40;;;;;;;0.88;0.88;;;;;;;;;;5027862;28;20051;-63
2023/05/06 02:30:06;;;;;;;0.80;0.80;;;;;;;;;;5046175;28;20570;-62
2023/05/06 02:32:32;;;;;;;1.05;1.05;;;;;;;;;;5045334;28;20037;-63
2023/05/06 02:34:58;;;;;;;0.80;0.80;;;;;;;;;;5047886;28;20130;-62
2023/05/06 02:37:24;;;;;;;0.95;0.90;;;;;;;;;;5046189;28;20088;-62
2023/05/06 02:39:50;;;;;;;0.60;0.60;;;;;;;;;;5029451;28;20045;-63
2023/05/06 02:42:16;;;;;;;1.98;0.98;;;;;;;;;;5045631;28;20073;-63
2023/05/06 02:44:42;;;;;;;1.08;0.98;;;;;;;;;;5028709;28;20475;-62
2023/05/06 02:47:08;;;;;;;0.70;0.70;;;;;;;;;;5045879;28;20052;-62
2023/05/06 02:49:34;;;;;;;1.02;1.00;;;;;;;;;;5027343;28;20065;-62
2023/05/06 02:52:00;;;;;;;1.20;1.10;;;;;;;;;;5046050;28;20045;-63
2023/05/06 02:54:26;;;;;;;0.80;0.80;;;;;;;;;;5045576;28;20033;-62
2023/05/06 02:56:52;;;;;;;1.10;1.00;;;;;;;;;;5028122;28;20079;-62
2023/05/06 02:59:18;;;;;;;0.93;0.90;;;;;;;;;;5046292;28;20103;-62
2023/05/06 03:01:44;;;;;;;1.20;1.10;;;;;;;;;;5045621;28;20134;-62
2023/05/06 03:04:11;;;;;;;0.90;0.85;;;;;;;;;;5028395;28;20113;-62
2023/05/06 03:06:36;;;;;;;0.88;0.88;;;;;;;;;;5027915;28;20442;-63
2023/05/06 03:09:03;;;;;;;0.90;0.90;;;;;;;;;;5043956;28;20052;-63
2023/05/06 03:11:30;;;;;;;1.13;1.08;;;;;;;;;;5045682;28;20139;-62
2023/05/06 03:13:56;;;;;;;1.13;1.02;;;;;;;;;;5045607;28;20051;-62
2023/05/06 03:16:22;;;;;;;2.08;1.23;;;;;;;;;;5044274;28;20041;-63
2023/05/06 03:18:48;;;;;;;1.00;1.00;;;;;;;;;;5027558;28;20110;-63
2023/05/06 03:21:14;;;;;;;1.65;1.08;;;;;;;;;;5030303;28;20084;-62
2023/05/06 03:23:40;;;;;;;1.10;1.00;;;;;;;;;;5044625;28;20629;-62
2023/05/06 03:26:06;;;;;;;0.93;0.93;;;;;;;;;;5027770;28;20064;-62
2023/05/06 03:28:32;;;;;;;0.90;0.90;;;;;;;;;;5045465;28;20074;-63
2023/05/06 03:30:58;;;;;;;0.70;0.70;;;;;;;;;;5028644;28;20049;-63
2023/05/06 03:33:24;;;;;;;0.70;0.70;;;;;;;;;;5025083;28;20048;-63
2023/05/06 03:35:50;;;;;;;0.60;0.60;;;;;;;;;;5047080;28;20041;-63
2023/05/06 03:38:16;;;;;;;0.98;0.90;;;;;;;;;;5044811;28;20044;-62
2023/05/06 03:40:42;;;;;;;0.80;0.80;;;;;;;;;;5046212;28;20048;-63
2023/05/06 03:43:09;;;;;;;0.82;0.82;;;;;;;;;;5045164;28;20127;-62
2023/05/06 03:45:35;;;;;;;0.57;0.57;;;;;;;;;;5047587;28;20051;-63
2023/05/06 03:48:01;;;;;;;0.65;0.65;;;;;;;;;;5026878;28;20049;-63
2023/05/06 03:50:27;;;;;;;1.13;1.02;;;;;;;;;;5043290;28;20102;-62
2023/05/06 03:52:53;;;;;;;0.95;0.95;;;;;;;;;;5026253;28;20041;-63
2023/05/06 03:55:19;;;;;;;0.70;0.70;;;;;;;;;;5047666;28;20044;-63
2023/05/06 03:57:45;;;;;;;0.90;0.90;;;;;;;;;;5044352;28;20128;-62
2023/05/06 04:00:11;;;;;;;0.63;0.63;;;;;;;;;;5027235;28;20082;-63
2023/05/06 04:02:37;;;;;;;1.00;1.00;;;;;;;;;;5044813;28;20052;-62
2023/05/06 04:05:03;;;;;;;0.80;0.80;;;;;;;;;;5043305;28;20094;-62
2023/05/06 04:07:29;;;;;;;0.70;0.70;;;;;;;;;;5028466;28;20407;-66
2023/05/06 04:09:56;;;;;;;0.70;0.70;;;;;;;;;;5043991;28;20045;-62
2023/05/06 04:12:22;;;;;;;0.88;0.88;;;;;;;;;;5044045;28;20372;-62
2023/05/06 04:14:48;;;;;;;0.70;0.70;;;;;;;;;;5044815;28;20041;-62
2023/05/06 04:17:14;;;;;;;0.65;0.65;;;;;;;;;;5027854;28;20037;-62
2023/05/06 04:19:40;;;;;;;0.70;0.70;;;;;;;;;;5025800;28;20051;-62
2023/05/06 04:22:06;;;;;;;0.73;0.73;;;;;;;;;;5029189;28;20088;-62
2023/05/06 04:24:32;;;;;;;0.77;0.60;;;;;;;;;;5044645;28;20084;-63
2023/05/06 04:26:58;;;;;;;1.65;0.90;;;;;;;;;;5043603;28;20465;-62
2023/05/06 04:29:25;;;;;;;0.93;0.70;;;;;;;;;;5043403;28;20577;-63
2023/05/06 04:31:52;;;;;;;1.10;0.52;;;;;;;;;;5014642;28;20077;-62
2023/05/06 04:34:18;;;;;;;0.90;0.90;;;;;;;;;;5025402;28;20768;-62
2023/05/06 04:36:46;;;;;;;0.63;0.63;;;;;;;;;;5048477;28;20045;-62
2023/05/06 04:39:12;;;;;;;0.82;0.82;;;;;;;;;;5044441;28;20056;-62
2023/05/06 04:41:38;;;;;;;0.50;0.50;;;;;;;;;;5026558;28;20766;-62
2023/05/06 04:44:04;;;;;;;0.77;0.77;;;;;;;;;;5043669;28;20052;-62
2023/05/06 04:46:30;;;;;;;0.80;0.80;;;;;;;;;;5026925;28;20060;-62
2023/05/06 04:48:57;;;;;;;0.65;0.65;;;;;;;;;;5043384;28;20053;-62
2023/05/06 04:51:23;;;;;;;0.60;0.60;;;;;;;;;;5043674;28;20467;-62
2023/05/06 04:53:49;;;;;;;0.63;0.63;;;;;;;;;;5043664;28;20068;-63
2023/05/06 04:56:15;;;;;;;1.20;1.10;;;;;;;;;;5025843;28;20399;-63
2023/05/06 04:58:41;;;;;;;0.57;0.57;;;;;;;;;;5043612;28;20049;-62
2023/05/06 05:01:08;;;;;;;0.80;0.80;;;;;;;;;;5041606;28;20399;-62
2023/05/06 05:03:34;;;;;;;0.70;0.70;;;;;;;;;;5025920;28;20178;-63
2023/05/06 05:06:00;;;;;;;0.70;0.70;;;;;;;;;;5043602;28;20056;-62
2023/05/06 05:08:26;;;;;;;1.15;1.08;;;;;;;;;;5041075;28;20043;-62
2023/05/06 05:10:52;;;;;;;1.10;1.00;;;;;;;;;;5041629;28;20064;-62
2023/05/06 05:13:19;;;;;;;1.35;1.23;;;;;;;;;;5025914;28;20064;-62
2023/05/06 05:15:45;;;;;;;1.30;1.20;;;;;;;;;;5024997;28;20564;-62
2023/05/06 05:18:11;;;;;;;1.17;1.10;;;;;;;;;;5044244;28;20427;-63
2023/05/06 05:20:38;;;;;;;1.48;1.33;;;;;;;;;;5025615;28;20052;-62
2023/05/06 05:23:04;;;;;;;1.10;1.00;;;;;;;;;;5026321;28;20049;-62
2023/05/06 05:25:30;;;;;;;0.82;0.82;;;;;;;;;;5041284;28;20037;-62
2023/05/06 05:27:56;;;;;;;0.73;0.73;;;;;;;;;;5025080;28;20079;-63
2023/05/06 05:30:22;;;;;;;0.73;0.73;;;;;;;;;;5042436;28;20053;-63
2023/05/06 05:32:49;;;;;;;1.65;1.08;;;;;;;;;;5025591;28;20033;-62
2023/05/06 05:35:15;;;;;;;1.10;0.85;;;;;;;;;;5025836;28;20063;-62
2023/05/06 05:37:41;;;;;;;1.30;1.20;;;;;;;;;;5025218;28;20098;-62
2023/05/06 05:40:08;;;;;;;1.92;1.83;;;;;;;;;;5045511;28;20053;-63
2023/05/06 05:42:34;;;;;;;0.93;0.93;;;;;;;;;;5029342;28;20041;-62
2023/05/06 05:45:00;;;;;;;1.20;1.10;;;;;;;;;;5028928;28;20067;-62
2023/05/06 05:47:26;;;;;;;0.80;0.80;;;;;;;;;;5047605;28;20049;-62
2023/05/06 05:49:52;;;;;;;1.20;1.13;;;;;;;;;;5029627;28;20167;-63
2023/05/06 05:52:19;;;;;;;1.25;1.15;;;;;;;;;;5031379;28;20049;-62
2023/05/06 05:54:45;;;;;;;1.70;1.60;;;;;;;;;;5029014;28;20430;-62
2023/05/06 05:57:11;;;;;;;1.08;1.08;;;;;;;;;;5047139;28;20080;-62
2023/05/06 05:59:37;;;;;;;1.20;1.10;;;;;;;;;;5045211;28;20095;-62
2023/05/06 06:02:03;;;;;;;1.60;1.50;;;;;;;;;;5028598;28;20310;-62
2023/05/06 06:04:30;;;;;;;2.50;1.67;;;;;;;;;;5028320;28;20049;-62
2023/05/06 06:07:00;;;;;;;1.52;1.42;;;;;;;;;;5028823;28;20045;-62
2023/05/06 06:09:26;;;;;;;1.73;1.63;;;;;;;;;;5028060;28;20037;-65
2023/05/06 06:11:52;;;;;;;1.58;1.48;;;;;;;;;;5045964;28;20045;-62
2023/05/06 06:14:18;;;;;;;1.55;1.45;;;;;;;;;;5027535;28;20087;-62
2023/05/06 06:16:44;;;;;;;1.70;1.60;;;;;;;;;;5029135;28;20077;-62
2023/05/06 06:19:11;;;;;;;1.90;1.80;;;;;;;;;;5028329;28;20049;-62
2023/05/06 06:21:37;;;;;;;1.75;1.65;;;;;;;;;;5028675;28;20060;-63
2023/05/06 06:24:03;;;;;;;1.13;1.02;;;;;;;;;;5028137;28;20686;-62
2023/05/06 06:26:29;;;;;;;2.42;1.60;;;;;;;;;;5030097;28;20348;-62
2023/05/06 06:28:55;;;;;;;1.40;1.30;;;;;;;;;;5028552;28;20052;-63
2023/05/06 06:31:21;;;;;;;1.45;1.35;;;;;;;;;;5028663;28;20487;-63
2023/05/06 06:33:47;;;;;;;1.50;1.40;;;;;;;;;;5027130;28;20442;-63
2023/05/06 06:36:13;;;;;;;1.73;1.50;;;;;;;;;;5031720;28;20041;-63
2023/05/06 06:38:40;;;;;;;1.63;1.52;;;;;;;;;;5046186;28;20052;-64
2023/05/06 06:41:06;;;;;;;1.75;1.63;;;;;;;;;;5045244;28;20060;-64
2023/05/06 06:43:32;;;;;;;1.40;1.30;;;;;;;;;;5046195;28;20115;-64
2023/05/06 06:45:58;;;;;;;1.90;1.80;;;;;;;;;;5045633;28;20041;-64
2023/05/06 06:48:24;;;;;;;1.77;1.67;;;;;;;;;;5027560;28;20049;-63
2023/05/06 06:50:50;;;;;;;2.85;2.65;;;;;;;;;;5027257;28;20199;-64
2023/05/06 06:53:17;;;;;;;2.53;2.33;;;;;;;;;;5046571;28;20372;-64
2023/05/06 06:55:43;;;;;;;3.17;2.88;;;;;;;;;;5027931;28;20550;-64
2023/05/06 06:58:09;;;;;;;2.60;2.40;;;;;;;;;;5045718;28;20547;-64
2023/05/06 07:00:35;;;;;;;3.13;2.83;;;;;;;;;;5045522;28;20128;-64
2023/05/06 07:03:01;;;;;;;2.50;2.30;;;;;;;;;;5045882;28;20041;-64
2023/05/06 07:05:27;;;;;;;2.20;2.00;;;;;;;;;;5046283;28;20099;-64
2023/05/06 07:07:54;;;;;;;2.38;2.17;;;;;;;;;;5049815;28;20064;-64
2023/05/06 07:10:20;;;;;;;4.32;3.75;;;;;;;;;;5046319;28;20045;-64
2023/05/06 07:12:46;;;;;;;2.85;2.65;;;;;;;;;;5028146;28;20061;-64
2023/05/06 07:15:12;;;;;;;2.50;2.30;;;;;;;;;;5045828;28;20048;-64
2023/05/06 07:17:38;;;;;;;1.80;1.70;;;;;;;;;;5046032;28;20493;-64
2023/05/06 07:20:05;;;;;;;1.80;1.70;;;;;;;;;;5027454;28;20158;-64
2023/05/06 07:22:31;;;;;;;2.03;1.85;;;;;;;;;;5026977;28;20045;-64
2023/05/06 07:24:57;;;;;;;5.68;3.80;;;;;;;;;;5044652;28;20110;-64
2023/05/06 07:27:23;;;;;;;3.80;3.50;;;;;;;;;;5027355;28;20076;-64
2023/05/06 07:29:49;;;;;;;4.38;3.53;;;;;;;;;;5022091;28;20312;-64
2023/05/06 07:32:15;;;;;;;3.55;3.25;;;;;;;;;;5027779;28;20068;-64
2023/05/06 07:34:41;;;;;;;3.55;3.25;;;;;;;;;;5045719;28;20040;-64
2023/05/06 07:37:07;;;;;;;3.58;3.28;;;;;;;;;;5044093;28;20110;-64
2023/05/06 07:39:33;;;;;;;2.05;1.73;;;;;;;;;;5026701;28;20044;-64
2023/05/06 07:42:00;;;;;;;1.90;1.80;;;;;;;;;;5028333;28;20057;-63
2023/05/06 07:44:26;;;;;;;2.70;2.50;;;;;;;;;;5045859;28;20051;-63
2023/05/06 07:46:52;;;;;;;2.20;2.10;;;;;;;;;;5027844;28;20132;-64
2023/05/06 07:49:18;;;;;;;2.42;2.22;;;;;;;;;;5028570;28;20483;-64
2023/05/06 07:51:44;;;;;;;2.40;2.20;;;;;;;;;;5026149;28;20099;-64
2023/05/06 07:54:11;;;;;;;3.90;2.42;;;;;;;;;;5043233;28;20048;-64
2023/05/06 07:56:37;;;;;;;2.45;2.25;;;;;;;;;;5027503;28;20053;-64
2023/05/06 07:59:03;;;;;;;2.92;2.72;;;;;;;;;;5044575;28;20048;-64
2023/05/06 08:01:29;;;;;;;2.50;2.30;;;;;;;;;;5031626;28;20053;-66
2023/05/06 08:03:55;;;;;;;3.85;2.50;;;;;;;;;;5045058;28;20049;-65
2023/05/06 08:06:21;;;;;;;3.97;3.67;;;;;;;;;;5046238;28;20145;-66
2023/05/06 08:08:47;;;;;;;4.78;4.25;;;;;;;;;;5028117;28;20049;-62
2023/05/06 08:11:13;;;;;;;4.13;3.75;;;;;;;;;;5044952;28;20095;-66
2023/05/06 08:13:39;;;;;;;3.55;3.22;;;;;;;;;;5045859;28;20048;-65
2023/05/06 08:16:05;;;;;;;3.83;2.90;;;;;;;;;;5027456;28;20522;-64
2023/05/06 08:18:34;;;;;;;3.80;3.13;;;;;;;;;;5044587;28;20064;-64
2023/05/06 08:21:00;;;;;;;5.43;4.93;;;;;;;;;;5027024;28;20055;-65
2023/05/06 08:23:26;;;;;;;6.78;5.47;;;;;;;;;;5033004;28;20065;-65
2023/05/06 08:25:52;;;;;;;5.72;5.07;;;;;;;;;;5044480;28;20041;-65
2023/05/06 08:28:19;;;;;;;10.18;8.60;;;;;;;;;;5027625;28;20102;-65
2023/05/06 08:30:47;;;;;;;6.43;5.82;;;;;;;;;;5027206;28;20132;-65
2023/05/06 08:33:13;;;;;;;5.63;5.13;;;;;;;;;;5044570;28;20052;-65
2023/05/06 08:35:39;;;;;;;4.20;3.90;;;;;;;;;;5044791;28;20094;-64
2023/05/06 08:38:05;;;;;;;4.20;3.80;;;;;;;;;;5026770;28;20059;-65
2023/05/06 08:40:32;;;;;;;4.53;4.10;;;;;;;;;;5044042;28;20044;-65
2023/05/06 08:42:59;;;;;;;4.53;4.13;;;;;;;;;;5043745;28;20033;-63
2023/05/06 08:45:26;;;;;;;3.63;3.28;;;;;;;;;;5031472;28;20517;-62
2023/05/06 08:47:52;;;;;;;3.58;3.30;;;;;;;;;;5043422;28;20526;-65
2023/05/06 08:50:18;;;;;;;5.97;4.18;;;;;;;;;;5044597;28;20060;-65
2023/05/06 08:52:44;;;;;;;3.53;3.22;;;;;;;;;;5026834;28;20680;-65
2023/05/06 08:55:10;;;;;;;3.53;3.22;;;;;;;;;;5019957;28;20060;-65
2023/05/06 08:57:37;;;;;;;4.28;3.60;;;;;;;;;;5044388;28;20044;-64
2023/05/06 09:00:03;;;;;;;3.78;3.47;;;;;;;;;;5025550;28;20092;-65
2023/05/06 09:02:29;;;;;;;4.50;4.13;;;;;;;;;;5026619;28;20067;-65
2023/05/06 09:04:55;;;;;;;5.50;5.00;;;;;;;;;;5044180;28;20128;-65
2023/05/06 09:07:22;;;;;;;6.05;5.53;;;;;;;;;;5044579;28;20091;-65
2023/05/06 09:09:48;;;;;;;4.40;4.00;;;;;;;;;;5044778;28;20389;-65
2023/05/06 09:12:14;;;;;;;3.30;3.00;;;;;;;;;;5027145;28;20064;-65
2023/05/06 09:14:41;;;;;;;3.22;3.03;;;;;;;;;;5043414;28;20113;-65
2023/05/06 09:17:22;;;;;;;5.05;4.47;;;;;;;;;;5044201;28;20459;-64
2023/05/06 09:19:48;;;;;;;5.03;4.53;;;;;;;;;;5044024;28;20067;-65
2023/05/06 09:22:14;;;;;;;6.03;5.28;;;;;;;;;;5043912;28;20064;-65
2023/05/06 09:24:41;;;;;;;4.55;4.18;;;;;;;;;;5044212;28;20041;-64
2023/05/06 09:27:07;;;;;;;5.25;4.57;;;;;;;;;;5026237;28;20076;-64
2023/05/06 09:29:33;;;;;;;4.10;3.72;;;;;;;;;;5043378;28;20091;-63
2023/05/06 09:32:04;;;;;;;4.10;3.70;;;;;;;;;;5025919;28;20125;-63
2023/05/06 09:34:30;;;;;;;3.80;3.50;;;;;;;;;;5044375;28;20594;-63
2023/05/06 09:36:57;;;;;;;4.22;3.83;;;;;;;;;;5043096;28;20107;-63
2023/05/06 09:39:26;;;;;;;3.50;3.20;;;;;;;;;;5044314;28;20083;-63
2023/05/06 09:41:53;;;;;;;4.35;3.95;;;;;;;;;;5024327;28;20044;-63
2023/05/06 09:44:21;;;;;;;3.88;3.60;;;;;;;;;;5025490;28;20049;-64
2023/05/06 09:46:47;;;;;;;3.63;3.22;;;;;;;;;;5025434;28;20045;-64
2023/05/06 09:49:14;;;;;;;3.60;3.30;;;;;;;;;;5026107;28;20547;-64
2023/05/06 09:51:46;;;;;;;4.97;4.57;;;;;;;;;;5025820;28;20052;-63
2023/05/06 09:54:13;;;;;;;4.00;3.53;;;;;;;;;;5044359;28;20048;-64
2023/05/06 09:56:39;;;;;;;3.97;3.33;;;;;;;;;;5043094;28;20057;-64
2023/05/06 09:59:06;;;;;;;4.00;3.60;;;;;;;;;;5030217;28;20059;-63
2023/05/06 10:01:35;;;;;;;2.78;2.53;;;;;;;;;;5027281;28;20403;-64
2023/05/06 10:04:03;;;;;;;3.30;3.00;;;;;;;;;;5035480;28;20053;-64
2023/05/06 10:06:31;;;;;;;4.93;3.83;;;;;;;;;;5043839;28;20140;-63
2023/05/06 10:08:59;;;;;;;4.88;3.78;;;;;;;;;;5025682;28;20057;-64
2023/05/06 10:11:25;;;;;;;4.13;3.55;;;;;;;;;;5025397;28;20064;-63
2023/05/06 10:13:52;;;;;;;4.40;4.00;;;;;;;;;;5043495;28;20120;-63
2023/05/06 10:16:18;;;;;;;3.90;3.60;;;;;;;;;;5026341;28;20449;-64
2023/05/06 10:18:45;;;;;;;3.20;2.90;;;;;;;;;;5025252;28;20419;-63
2023/05/06 10:21:16;;;;;;;4.95;4.00;;;;;;;;;;5042158;28;20053;-64
2023/05/06 10:23:51;;;;;;;3.95;3.63;;;;;;;;;;5023813;28;20057;-64
2023/05/06 10:26:18;;;;;;;3.75;3.45;;;;;;;;;;5046166;28;20072;-64
2023/05/06 10:28:48;;;;;;;2.60;2.40;;;;;;;;;;5029483;28;20045;-63
2023/05/06 10:31:14;;;;;;;3.58;3.28;;;;;;;;;;5029900;28;20084;-63
2023/05/06 10:33:41;;;;;;;3.30;3.03;;;;;;;;;;5046744;28;20094;-65
2023/05/06 10:36:14;;;;;;;2.97;2.78;;;;;;;;;;5046949;28;20041;-65
2023/05/06 10:38:41;;;;;;;2.60;2.40;;;;;;;;;;5028800;28;20080;-65
2023/05/06 10:41:08;;;;;;;1.30;1.20;;;;;;;;;;5046809;28;20106;-65
2023/05/06 10:43:38;;;;;;;1.42;1.23;;;;;;;;;;5028751;28;20052;-65
2023/05/06 10:46:04;;;;;;;1.73;1.63;;;;;;;;;;5028398;28;20516;-65
2023/05/06 10:48:31;;;;;;;2.22;1.80;;;;;;;;;;5028965;28;20632;-65
2023/05/06 10:51:15;;;;;;;3.53;3.22;;;;;;;;;;5046766;28;20052;-65
2023/05/06 10:54:03;;;;;;;3.97;3.67;;;;;;;;;;5028580;28;20528;-65
2023/05/06 10:56:47;;;;;;;3.65;3.35;;;;;;;;;;5046676;28;20249;-65
2023/05/06 10:59:13;;;;;;;2.00;1.90;;;;;;;;;;5023036;28;20103;-65
2023/05/06 11:01:40;;;;;;;1.30;1.20;;;;;;;;;;5045912;28;20445;-65
2023/05/06 11:04:13;;;;;;;1.27;1.17;;;;;;;;;;5046487;28;20057;-65
2023/05/06 11:06:43;;;;;;;1.20;1.10;;;;;;;;;;5045860;28;20053;-65
2023/05/06 11:09:16;;;;;;;1.10;0.80;;;;;;;;;;5025352;28;20103;-66
2023/05/06 11:11:46;;;;;;;0.60;0.60;;;;;;;;;;5025438;28;20052;-65
2023/05/06 11:14:13;;;;;;;0.93;0.60;;;;;;;;;;5024172;28;20045;-65
2023/05/06 11:16:51;;;;;;;0.98;0.95;;;;;;;;;;5046466;28;20048;-65
2023/05/06 11:19:28;;;;;;;1.67;1.58;;;;;;;;;;5028326;28;20041;-65
2023/05/06 11:21:56;;;;;;;2.83;2.63;;;;;;;;;;5044616;28;20057;-65
2023/05/06 11:24:23;;;;;;;2.33;1.95;;;;;;;;;;5029072;28;20056;-65
2023/05/06 11:26:49;;;;;;;3.80;3.50;;;;;;;;;;5048913;28;20098;-65
2023/05/06 11:29:16;;;;;;;3.67;3.00;;;;;;;;;;5037489;28;20051;-65
2023/05/06 11:31:43;;;;;;;2.85;2.65;;;;;;;;;;5053187;28;20068;-65
2023/05/06 11:34:10;;;;;;;3.90;3.60;;;;;;;;;;5047205;28;20143;-65
2023/05/06 11:36:37;;;;;;;2.92;2.63;;;;;;;;;;5026859;28;20056;-66
2023/05/06 11:39:07;;;;;;;2.33;2.13;;;;;;;;;;5045940;28;20515;-66
2023/05/06 11:41:33;;;;;;;2.25;1.95;;;;;;;;;;5025545;28;20044;-65
2023/05/06 11:43:59;;;;;;;3.17;2.88;;;;;;;;;;5026971;28;20063;-65
2023/05/06 11:46:29;;;;;;;2.40;2.20;;;;;;;;;;5030775;28;20633;-65
2023/05/06 11:48:55;;;;;;;4.55;4.25;;;;;;;;;;5026615;28;20060;-65
2023/05/06 11:51:21;;;;;;;4.45;3.28;;;;;;;;;;5045369;28;20071;-65
2023/05/06 11:53:47;;;;;;;2.67;2.47;;;;;;;;;;5044439;28;20507;-65
2023/05/06 11:56:13;;;;;;;5.35;2.63;;;;;;;;;;5028553;28;20049;-65
2023/05/06 11:58:39;;;;;;;3.53;3.22;;;;;;;;;;5030396;28;20201;-65
2023/05/06 12:01:05;;;;;;;6.30;5.25;;;;;;;;;;5047847;28;20114;-65
2023/05/06 12:03:33;;;;;;;3.63;3.33;;;;;;;;;;5036309;28;20045;-65
2023/05/06 12:05:59;;;;;;;3.60;3.30;;;;;;;;;;5033284;28;20053;-64
2023/05/06 12:08:27;;;;;;;3.85;2.60;;;;;;;;;;5030920;28;20098;-64
2023/05/06 12:10:55;;;;;;;1.80;1.33;;;;;;;;;;5030409;28;20483;-64
2023/05/06 12:13:21;;;;;;;1.33;1.17;;;;;;;;;;5044499;28;20075;-64
2023/05/06 12:15:48;;;;;;;0.55;0.55;;;;;;;;;;5044299;28;20052;-64
2023/05/06 12:18:15;;;;;;;0.85;0.68;;;;;;;;;;5032442;28;20045;-65
2023/05/06 12:20:41;;;;;;;0.60;0.60;;;;;;;;;;5021453;28;20258;-64
2023/05/06 12:23:16;;;;;;;0.50;0.40;;;;;;;;;;5035257;28;20051;-64
2023/05/06 12:25:47;;;;;;;0.68;0.65;;;;;;;;;;5039791;28;20053;-64
2023/05/06 12:28:18;;;;;;;0.85;0.80;;;;;;;;;;5044053;28;20560;-64
2023/05/06 12:30:44;;;;;;;1.17;0.60;;;;;;;;;;5044259;28;20052;-64
2023/05/06 12:33:10;;;;;;;2.17;1.13;;;;;;;;;;5051606;28;20084;-64
2023/05/06 12:35:37;;;;;;;1.48;0.88;;;;;;;;;;5044009;28;20051;-64
2023/05/06 12:38:10;;;;;;;0.60;0.60;;;;;;;;;;5043409;28;20060;-64
2023/05/06 12:40:36;;;;;;;1.05;1.00;;;;;;;;;;5040264;28;20521;-64
2023/05/06 12:43:02;;;;;;;1.55;1.33;;;;;;;;;;5043401;28;20041;-64
2023/05/06 12:45:28;;;;;;;2.45;1.20;;;;;;;;;;5042638;28;20045;-64
2023/05/06 12:47:58;;;;;;;1.27;1.17;;;;;;;;;;5042950;28;20049;-64
2023/05/06 12:50:31;;;;;;;2.97;1.15;;;;;;;;;;5045372;28;20066;-64
2023/05/06 12:52:57;;;;;;;0.88;0.80;;;;;;;;;;5043053;28;20052;-64
2023/05/06 12:55:24;;;;;;;1.05;0.85;;;;;;;;;;5034371;28;20041;-64
2023/05/06 12:57:51;;;;;;;2.42;2.22;;;;;;;;;;5033319;28;20048;-64
2023/05/06 13:00:17;;;;;;;3.13;2.90;;;;;;;;;;5026630;28;20044;-64
2023/05/06 13:02:44;;;;;;;3.65;3.33;;;;;;;;;;5031998;28;20135;-64
2023/05/06 13:05:10;;;;;;;4.55;4.13;;;;;;;;;;5043949;28;20065;-64
2023/05/06 13:07:36;;;;;;;3.38;3.08;;;;;;;;;;5050245;28;20037;-64
2023/05/06 13:10:04;;;;;;;2.72;2.50;;;;;;;;;;5022660;28;20048;-63
2023/05/06 13:12:31;;;;;;;3.42;2.85;;;;;;;;;;5030541;28;20492;-64
2023/05/06 13:14:57;;;;;;;3.58;3.00;;;;;;;;;;5031773;28;20110;-64
2023/05/06 13:17:23;;;;;;;4.10;2.95;;;;;;;;;;5028013;28;20541;-64
2023/05/06 13:19:49;;;;;;;3.15;2.85;;;;;;;;;;5048394;28;20045;-64
2023/05/06 13:22:16;;;;;;;6.43;5.75;;;;;;;;;;5051486;28;20037;-64
2023/05/06 13:24:42;;;;;;;7.45;5.43;;;;;;;;;;5032925;28;20087;-64
2023/05/06 13:27:08;;;;;;;5.88;5.25;;;;;;;;;;5050468;28;20487;-64
2023/05/06 13:29:34;;;;;;;6.65;5.22;;;;;;;;;;5045998;28;20033;-64
2023/05/06 13:32:00;;;;;;;5.65;3.95;;;;;;;;;;5049563;28;20609;-64
2023/05/06 13:34:26;;;;;;;4.53;4.13;;;;;;;;;;5045450;28;20114;-64
2023/05/06 13:36:53;;;;;;;4.57;3.85;;;;;;;;;;5049963;28;20487;-64
2023/05/06 13:39:20;;;;;;;3.67;3.38;;;;;;;;;;5044675;28;20155;-64
2023/05/06 13:41:48;;;;;;;4.88;3.58;;;;;;;;;;5042237;28;20060;-64
2023/05/06 13:44:14;;;;;;;4.85;3.28;;;;;;;;;;5043903;28;20393;-64
2023/05/06 13:46:41;;;;;;;3.00;2.70;;;;;;;;;;5043754;28;20530;-64
2023/05/06 13:49:07;;;;;;;4.43;2.10;;;;;;;;;;5043084;28;20048;-64
2023/05/06 13:51:33;;;;;;;2.28;1.90;;;;;;;;;;5044048;28;20369;-64
2023/05/06 13:53:59;;;;;;;1.42;1.27;;;;;;;;;;5025779;28;20059;-64
2023/05/06 13:56:25;;;;;;;2.55;0.90;;;;;;;;;;5025203;28;20045;-65
2023/05/06 13:58:54;;;;;;;0.88;0.88;;;;;;;;;;5025330;28;20094;-65
2023/05/06 14:01:21;;;;;;;1.23;0.80;;;;;;;;;;5028975;28;20511;-65
2023/05/06 14:03:47;;;;;;;1.70;1.00;;;;;;;;;;5047052;28;20122;-65
2023/05/06 14:06:13;;;;;;;1.00;0.90;;;;;;;;;;5030443;28;20084;-65
2023/05/06 14:08:39;;;;;;;1.00;0.90;;;;;;;;;;5029773;28;20037;-65
2023/05/06 14:11:05;;;;;;;1.00;0.70;;;;;;;;;;5046920;28;20428;-65
2023/05/06 14:13:32;;;;;;;1.80;1.25;;;;;;;;;;5047917;28;20564;-65
2023/05/06 14:15:58;;;;;;;0.82;0.82;;;;;;;;;;5047469;28;20254;-65
2023/05/06 14:18:25;;;;;;;0.63;0.60;;;;;;;;;;5046306;28;20087;-65
2023/05/06 14:20:51;;;;;;;2.33;1.80;;;;;;;;;;5047213;28;20084;-65
2023/05/06 14:23:17;;;;;;;1.95;1.85;;;;;;;;;;5047966;28;20044;-65
2023/05/06 14:25:43;;;;;;;3.47;2.40;;;;;;;;;;5046981;28;20028;-65
2023/05/06 14:28:12;;;;;;;2.05;1.65;;;;;;;;;;5047315;28;20045;-65
2023/05/06 14:30:38;;;;;;;1.92;1.83;;;;;;;;;;5046783;28;20045;-64
2023/05/06 14:33:05;;;;;;;2.08;1.98;;;;;;;;;;5021469;28;20128;-65
2023/05/06 14:35:31;;;;;;;2.47;2.28;;;;;;;;;;5047388;28;20041;-65
2023/05/06 14:37:57;;;;;;;3.10;2.72;;;;;;;;;;5028425;28;20049;-65
2023/05/06 14:40:23;;;;;;;2.90;2.70;;;;;;;;;;5047147;28;20040;-65